sensor_id;sensor_type;location;lat;lon;timestamp;pressure;altitude;pressure_sealevel;temperature;humidity
55347;BME280;41218;55.700;38.270;2023-02-12T00:04:28;98346.06;;;-0.65;72.49
55347;BME280;41218;55.700;38.270;2023-02-12T00:09:28;98351.63;;;-0.62;72.67
55347;BME280;41218;55.700;38.270;2023-02-12T00:14:28;98352.31;;;-0.65;72.60
55347;BME280;41218;55.700;38.270;2023-02-12T00:19:30;98345.56;;;-0.58;72.40
55347;BME280;41218;55.700;38.270;2023-02-12T00:24:31;98347.00;;;-0.61;72.43
55347;BME280;41218;55.700;38.270;2023-02-12T00:29:31;98351.09;;;-0.55;72.21
55347;BME280;41218;55.700;38.270;2023-02-12T00:34:32;98356.19;;;-0.53;71.96
55347;BME280;41218;55.700;38.270;2023-02-12T00:39:32;98364.19;;;-0.57;71.82
55347;BME280;41218;55.700;38.270;2023-02-12T00:44:35;98367.72;;;-0.56;72.25
55347;BME280;41218;55.700;38.270;2023-02-12T00:49:36;98386.25;;;-0.58;71.83
55347;BME280;41218;55.700;38.270;2023-02-12T00:54:37;98379.44;;;-0.65;72.32
55347;BME280;41218;55.700;38.270;2023-02-12T00:59:37;98380.69;;;-0.62;72.36
55347;BME280;41218;55.700;38.270;2023-02-12T01:04:39;98388.97;;;-0.58;72.46
55347;BME280;41218;55.700;38.270;2023-02-12T01:09:39;98396.97;;;-0.62;72.14
55347;BME280;41218;55.700;38.270;2023-02-12T01:14:40;98406.38;;;-0.59;71.82
55347;BME280;41218;55.700;38.270;2023-02-12T01:19:40;98421.72;;;-0.64;72.30
55347;BME280;41218;55.700;38.270;2023-02-12T01:24:41;98423.44;;;-0.59;72.24
55347;BME280;41218;55.700;38.270;2023-02-12T01:29:42;98454.75;;;-0.62;72.50
55347;BME280;41218;55.700;38.270;2023-02-12T01:34:45;98462.94;;;-0.70;72.46
55347;BME280;41218;55.700;38.270;2023-02-12T01:39:46;98475.25;;;-0.73;72.54
55347;BME280;41218;55.700;38.270;2023-02-12T01:50:14;98498.13;;;-0.91;72.14
55347;BME280;41218;55.700;38.270;2023-02-12T01:55:18;98516.66;;;-1.02;73.20
55347;BME280;41218;55.700;38.270;2023-02-12T02:00:22;98535.50;;;-1.06;73.34
55347;BME280;41218;55.700;38.270;2023-02-12T02:05:40;98541.44;;;-1.21;73.53
55347;BME280;41218;55.700;38.270;2023-02-12T02:10:42;98564.56;;;-1.32;73.68
55347;BME280;41218;55.700;38.270;2023-02-12T02:15:46;98579.25;;;-1.33;73.41
55347;BME280;41218;55.700;38.270;2023-02-12T02:26:09;98609.69;;;-1.45;74.02
55347;BME280;41218;55.700;38.270;2023-02-12T02:31:45;98628.50;;;-1.57;74.08
55347;BME280;41218;55.700;38.270;2023-02-12T02:36:55;98655.66;;;-1.89;75.06
55347;BME280;41218;55.700;38.270;2023-02-12T02:47:27;98670.94;;;-1.93;75.05
55347;BME280;41218;55.700;38.270;2023-02-12T02:52:37;98683.78;;;-2.07;75.27
55347;BME280;41218;55.700;38.270;2023-02-12T02:57:56;98704.63;;;-2.16;75.74
55347;BME280;41218;55.700;38.270;2023-02-12T03:03:07;98721.69;;;-2.07;75.47
55347;BME280;41218;55.700;38.270;2023-02-12T03:08:14;98741.97;;;-2.27;75.64
55347;BME280;41218;55.700;38.270;2023-02-12T03:13:43;98729.38;;;-2.32;75.80
55347;BME280;41218;55.700;38.270;2023-02-12T03:18:53;98758.06;;;-2.31;76.03
55347;BME280;41218;55.700;38.270;2023-02-12T03:24:01;98759.28;;;-2.37;76.06
55347;BME280;41218;55.700;38.270;2023-02-12T03:29:03;98765.94;;;-2.43;75.86
55347;BME280;41218;55.700;38.270;2023-02-12T03:34:12;98798.41;;;-2.43;75.77
55347;BME280;41218;55.700;38.270;2023-02-12T03:49:52;98831.91;;;-2.53;75.76
55347;BME280;41218;55.700;38.270;2023-02-12T03:54:55;98840.47;;;-2.59;75.38
55347;BME280;41218;55.700;38.270;2023-02-12T04:00:02;98847.06;;;-2.66;75.64
55347;BME280;41218;55.700;38.270;2023-02-12T04:05:05;98869.91;;;-2.58;74.75
55347;BME280;41218;55.700;38.270;2023-02-12T04:10:06;98874.72;;;-2.69;75.04
55347;BME280;41218;55.700;38.270;2023-02-12T04:30:45;98916.41;;;-2.70;74.11
55347;BME280;41218;55.700;38.270;2023-02-12T04:35:56;98917.03;;;-2.73;74.07
55347;BME280;41218;55.700;38.270;2023-02-12T04:40:59;98935.16;;;-2.73;73.99
55347;BME280;41218;55.700;38.270;2023-02-12T04:46:00;98958.00;;;-2.79;74.66
55347;BME280;41218;55.700;38.270;2023-02-12T04:51:01;98957.88;;;-2.74;74.34
55347;BME280;41218;55.700;38.270;2023-02-12T04:56:01;98958.59;;;-2.83;74.10
55347;BME280;41218;55.700;38.270;2023-02-12T05:01:02;98974.94;;;-2.88;74.30
55347;BME280;41218;55.700;38.270;2023-02-12T05:06:04;98992.75;;;-2.87;74.39
55347;BME280;41218;55.700;38.270;2023-02-12T05:11:07;99030.00;;;-2.70;73.58
55347;BME280;41218;55.700;38.270;2023-02-12T05:16:08;99011.88;;;-2.83;73.53
55347;BME280;41218;55.700;38.270;2023-02-12T05:21:09;99035.31;;;-2.78;73.09
55347;BME280;41218;55.700;38.270;2023-02-12T05:26:16;99061.47;;;-2.88;73.18
55347;BME280;41218;55.700;38.270;2023-02-12T05:31:18;99076.59;;;-2.87;72.93
55347;BME280;41218;55.700;38.270;2023-02-12T05:36:21;99093.59;;;-3.00;73.08
55347;BME280;41218;55.700;38.270;2023-02-12T05:41:22;99106.22;;;-2.95;73.28
55347;BME280;41218;55.700;38.270;2023-02-12T05:46:23;99115.34;;;-2.91;72.83
55347;BME280;41218;55.700;38.270;2023-02-12T05:51:25;99135.75;;;-2.99;72.67
55347;BME280;41218;55.700;38.270;2023-02-12T05:56:29;99133.31;;;-3.00;72.83
55347;BME280;41218;55.700;38.270;2023-02-12T06:01:32;99148.41;;;-3.13;72.85
55347;BME280;41218;55.700;38.270;2023-02-12T06:06:34;99157.31;;;-3.13;72.87
55347;BME280;41218;55.700;38.270;2023-02-12T06:11:35;99159.66;;;-3.25;72.71
55347;BME280;41218;55.700;38.270;2023-02-12T06:16:35;99170.09;;;-3.18;72.59
55347;BME280;41218;55.700;38.270;2023-02-12T06:21:36;99192.97;;;-3.11;72.18
55347;BME280;41218;55.700;38.270;2023-02-12T06:26:37;99198.00;;;-3.23;72.87
55347;BME280;41218;55.700;38.270;2023-02-12T06:31:37;99213.16;;;-3.22;72.62
55347;BME280;41218;55.700;38.270;2023-02-12T06:36:40;99225.56;;;-3.21;72.12
55347;BME280;41218;55.700;38.270;2023-02-12T06:41:41;99251.00;;;-3.22;72.45
55347;BME280;41218;55.700;38.270;2023-02-12T06:46:43;99248.78;;;-3.20;71.79
55347;BME280;41218;55.700;38.270;2023-02-12T06:51:43;99261.50;;;-3.20;71.44
55347;BME280;41218;55.700;38.270;2023-02-12T06:56:44;99269.09;;;-3.23;71.76
55347;BME280;41218;55.700;38.270;2023-02-12T07:01:44;99278.53;;;-3.20;71.21
55347;BME280;41218;55.700;38.270;2023-02-12T07:06:45;99284.78;;;-3.25;71.71
55347;BME280;41218;55.700;38.270;2023-02-12T07:11:47;99299.94;;;-3.24;71.19
55347;BME280;41218;55.700;38.270;2023-02-12T07:16:47;99319.41;;;-3.27;70.84
55347;BME280;41218;55.700;38.270;2023-02-12T07:21:48;99326.69;;;-3.22;71.16
55347;BME280;41218;55.700;38.270;2023-02-12T07:26:48;99353.47;;;-3.26;71.13
55347;BME280;41218;55.700;38.270;2023-02-12T07:31:49;99340.00;;;-3.07;69.79
55347;BME280;41218;55.700;38.270;2023-02-12T07:36:49;99337.41;;;-3.17;70.45
55347;BME280;41218;55.700;38.270;2023-02-12T07:41:50;99371.00;;;-3.23;70.68
55347;BME280;41218;55.700;38.270;2023-02-12T07:46:50;99373.97;;;-3.25;70.27
55347;BME280;41218;55.700;38.270;2023-02-12T07:51:51;99383.25;;;-3.31;70.57
55347;BME280;41218;55.700;38.270;2023-02-12T07:56:51;99404.75;;;-3.20;69.99
55347;BME280;41218;55.700;38.270;2023-02-12T08:01:52;99411.13;;;-3.35;70.39
55347;BME280;41218;55.700;38.270;2023-02-12T08:06:54;99425.53;;;-3.45;69.59
55347;BME280;41218;55.700;38.270;2023-02-12T08:11:54;99417.50;;;-3.50;69.85
55347;BME280;41218;55.700;38.270;2023-02-12T08:16:55;99451.56;;;-3.25;69.16
55347;BME280;41218;55.700;38.270;2023-02-12T08:21:56;99455.91;;;-3.24;68.82
55347;BME280;41218;55.700;38.270;2023-02-12T08:26:56;99473.72;;;-3.23;67.98
55347;BME280;41218;55.700;38.270;2023-02-12T08:31:59;99469.31;;;-3.14;68.14
55347;BME280;41218;55.700;38.270;2023-02-12T08:37:00;99483.91;;;-3.15;68.27
55347;BME280;41218;55.700;38.270;2023-02-12T08:42:01;99487.13;;;-3.13;66.74
55347;BME280;41218;55.700;38.270;2023-02-12T08:47:02;99504.69;;;-3.10;65.44
55347;BME280;41218;55.700;38.270;2023-02-12T08:52:02;99504.69;;;-3.39;66.42
55347;BME280;41218;55.700;38.270;2023-02-12T08:57:03;99511.25;;;-3.51;66.79
55347;BME280;41218;55.700;38.270;2023-02-12T09:02:03;99518.34;;;-3.26;65.99
55347;BME280;41218;55.700;38.270;2023-02-12T09:07:07;99528.97;;;-3.34;65.99
55347;BME280;41218;55.700;38.270;2023-02-12T09:12:08;99545.47;;;-3.36;65.89
55347;BME280;41218;55.700;38.270;2023-02-12T09:17:08;99533.94;;;-3.47;66.23
55347;BME280;41218;55.700;38.270;2023-02-12T09:22:09;99554.91;;;-3.33;66.09
55347;BME280;41218;55.700;38.270;2023-02-12T09:27:09;99555.16;;;-3.35;65.58
55347;BME280;41218;55.700;38.270;2023-02-12T09:32:10;99582.72;;;-3.33;65.75
55347;BME280;41218;55.700;38.270;2023-02-12T09:37:10;99565.59;;;-3.52;65.63
55347;BME280;41218;55.700;38.270;2023-02-12T09:52:34;99607.09;;;-3.38;64.71
55347;BME280;41218;55.700;38.270;2023-02-12T09:57:36;99616.34;;;-3.49;64.73
55347;BME280;41218;55.700;38.270;2023-02-12T10:02:38;99632.84;;;-3.51;64.50
55347;BME280;41218;55.700;38.270;2023-02-12T10:12:56;99627.78;;;-3.63;64.22
55347;BME280;41218;55.700;38.270;2023-02-12T10:18:35;99633.91;;;-3.47;64.22
55347;BME280;41218;55.700;38.270;2023-02-12T10:29:30;99671.44;;;-3.40;63.57
55347;BME280;41218;55.700;38.270;2023-02-12T10:34:35;99681.97;;;-3.38;62.33
55347;BME280;41218;55.700;38.270;2023-02-12T10:39:42;99671.16;;;-3.38;61.68
55347;BME280;41218;55.700;38.270;2023-02-12T10:44:45;99680.94;;;-3.53;61.73
55347;BME280;41218;55.700;38.270;2023-02-12T10:49:57;99681.78;;;-3.57;62.41
55347;BME280;41218;55.700;38.270;2023-02-12T10:54:58;99694.97;;;-3.51;61.99
55347;BME280;41218;55.700;38.270;2023-02-12T11:05:25;99705.81;;;-3.56;62.77
55347;BME280;41218;55.700;38.270;2023-02-12T11:10:30;99718.00;;;-3.58;62.09
55347;BME280;41218;55.700;38.270;2023-02-12T11:15:51;99738.81;;;-3.69;61.53
55347;BME280;41218;55.700;38.270;2023-02-12T11:20:56;99737.69;;;-3.53;60.64
55347;BME280;41218;55.700;38.270;2023-02-12T11:31:29;99741.06;;;-3.87;60.88
55347;BME280;41218;55.700;38.270;2023-02-12T11:36:32;99759.97;;;-3.92;60.92
55347;BME280;41218;55.700;38.270;2023-02-12T11:41:36;99753.19;;;-3.84;60.46
55347;BME280;41218;55.700;38.270;2023-02-12T11:46:37;99766.97;;;-3.80;60.57
55347;BME280;41218;55.700;38.270;2023-02-12T11:51:39;99775.88;;;-3.80;60.16
55347;BME280;41218;55.700;38.270;2023-02-12T11:56:42;99784.00;;;-3.85;60.10
55347;BME280;41218;55.700;38.270;2023-02-12T12:01:44;99796.97;;;-3.92;60.75
55347;BME280;41218;55.700;38.270;2023-02-12T12:06:47;99803.47;;;-3.93;61.08
55347;BME280;41218;55.700;38.270;2023-02-12T12:12:20;99819.63;;;-3.73;59.83
55347;BME280;41218;55.700;38.270;2023-02-12T12:17:36;99831.25;;;-3.83;59.93
55347;BME280;41218;55.700;38.270;2023-02-12T12:23:13;99845.56;;;-3.92;60.05
55347;BME280;41218;55.700;38.270;2023-02-12T12:28:41;99842.59;;;-3.91;60.08
55347;BME280;41218;55.700;38.270;2023-02-12T12:33:50;99855.03;;;-3.85;60.07
55347;BME280;41218;55.700;38.270;2023-02-12T12:39:15;99855.25;;;-3.66;59.75
55347;BME280;41218;55.700;38.270;2023-02-12T12:44:34;99867.44;;;-3.84;60.02
55347;BME280;41218;55.700;38.270;2023-02-12T12:55:22;99897.16;;;-3.89;60.45
55347;BME280;41218;55.700;38.270;2023-02-12T13:00:40;99883.94;;;-3.85;60.14
55347;BME280;41218;55.700;38.270;2023-02-12T13:06:07;99904.69;;;-3.86;59.63
55347;BME280;41218;55.700;38.270;2023-02-12T13:11:26;99914.19;;;-3.93;60.56
55347;BME280;41218;55.700;38.270;2023-02-12T13:16:41;99925.22;;;-4.00;60.56
55347;BME280;41218;55.700;38.270;2023-02-12T13:26:57;99947.09;;;-4.02;60.51
55347;BME280;41218;55.700;38.270;2023-02-12T13:53:35;99994.06;;;-4.03;61.08
55347;BME280;41218;55.700;38.270;2023-02-12T13:58:52;99998.91;;;-4.10;61.36
55347;BME280;41218;55.700;38.270;2023-02-12T14:03:53;99988.09;;;-4.10;61.24
55347;BME280;41218;55.700;38.270;2023-02-12T14:09:08;100005.66;;;-4.12;61.58
55347;BME280;41218;55.700;38.270;2023-02-12T14:14:08;100002.13;;;-4.18;61.53
55347;BME280;41218;55.700;38.270;2023-02-12T14:24:50;100007.78;;;-4.25;61.75
55347;BME280;41218;55.700;38.270;2023-02-12T14:50:41;100055.94;;;-4.59;62.52
55347;BME280;41218;55.700;38.270;2023-02-12T14:55:50;100070.47;;;-4.65;62.82
55347;BME280;41218;55.700;38.270;2023-02-12T15:00:55;100079.34;;;-4.70;62.80
55347;BME280;41218;55.700;38.270;2023-02-12T15:06:18;100090.38;;;-4.76;62.27
55347;BME280;41218;55.700;38.270;2023-02-12T15:21:47;100105.50;;;-5.08;63.15
55347;BME280;41218;55.700;38.270;2023-02-12T15:26:51;100110.25;;;-5.20;63.22
55347;BME280;41218;55.700;38.270;2023-02-12T15:31:55;100138.06;;;-5.14;63.67
55347;BME280;41218;55.700;38.270;2023-02-12T15:36:58;100135.31;;;-5.19;63.21
55347;BME280;41218;55.700;38.270;2023-02-12T15:41:59;100150.94;;;-5.21;63.13
55347;BME280;41218;55.700;38.270;2023-02-12T15:47:12;100156.28;;;-5.27;63.80
55347;BME280;41218;55.700;38.270;2023-02-12T15:52:19;100154.00;;;-5.40;64.25
55347;BME280;41218;55.700;38.270;2023-02-12T15:57:22;100156.38;;;-5.44;63.71
55347;BME280;41218;55.700;38.270;2023-02-12T16:02:29;100163.91;;;-5.46;64.08
55347;BME280;41218;55.700;38.270;2023-02-12T16:07:35;100172.75;;;-5.50;64.49
55347;BME280;41218;55.700;38.270;2023-02-12T16:12:36;100179.22;;;-5.51;64.29
55347;BME280;41218;55.700;38.270;2023-02-12T16:17:45;100179.94;;;-5.56;64.51
55347;BME280;41218;55.700;38.270;2023-02-12T16:22:49;100178.34;;;-5.57;64.48
55347;BME280;41218;55.700;38.270;2023-02-12T16:28:00;100167.44;;;-5.67;64.65
55347;BME280;41218;55.700;38.270;2023-02-12T16:33:02;100169.06;;;-5.66;64.66
55347;BME280;41218;55.700;38.270;2023-02-12T16:43:41;100188.31;;;-5.79;64.64
55347;BME280;41218;55.700;38.270;2023-02-12T16:48:51;100189.03;;;-5.84;64.92
55347;BME280;41218;55.700;38.270;2023-02-12T16:53:53;100196.56;;;-5.86;64.98
55347;BME280;41218;55.700;38.270;2023-02-12T16:58:57;100197.31;;;-5.91;64.67
55347;BME280;41218;55.700;38.270;2023-02-12T17:04:00;100194.28;;;-5.99;65.17
55347;BME280;41218;55.700;38.270;2023-02-12T17:09:03;100211.47;;;-6.00;65.70
55347;BME280;41218;55.700;38.270;2023-02-12T17:14:04;100210.66;;;-6.01;65.33
55347;BME280;41218;55.700;38.270;2023-02-12T17:19:04;100211.75;;;-6.02;65.52
55347;BME280;41218;55.700;38.270;2023-02-12T17:24:21;100206.84;;;-6.05;65.51
55347;BME280;41218;55.700;38.270;2023-02-12T17:29:23;100195.75;;;-6.09;65.83
55347;BME280;41218;55.700;38.270;2023-02-12T17:34:24;100203.91;;;-6.03;65.80
55347;BME280;41218;55.700;38.270;2023-02-12T17:39:25;100208.50;;;-6.04;65.75
55347;BME280;41218;55.700;38.270;2023-02-12T17:44:25;100216.84;;;-6.00;65.98
55347;BME280;41218;55.700;38.270;2023-02-12T17:49:26;100213.78;;;-6.09;66.05
55347;BME280;41218;55.700;38.270;2023-02-12T17:54:26;100210.16;;;-6.20;66.42
55347;BME280;41218;55.700;38.270;2023-02-12T17:59:27;100218.28;;;-6.15;66.49
55347;BME280;41218;55.700;38.270;2023-02-12T18:04:30;100217.22;;;-6.14;66.63
55347;BME280;41218;55.700;38.270;2023-02-12T18:09:31;100215.25;;;-6.18;66.34
55347;BME280;41218;55.700;38.270;2023-02-12T18:14:32;100215.13;;;-6.29;66.51
55347;BME280;41218;55.700;38.270;2023-02-12T18:19:33;100215.13;;;-6.29;66.52
55347;BME280;41218;55.700;38.270;2023-02-12T18:24:34;100218.16;;;-6.42;66.76
55347;BME280;41218;55.700;38.270;2023-02-12T18:29:35;100229.97;;;-6.43;66.77
55347;BME280;41218;55.700;38.270;2023-02-12T18:34:35;100227.56;;;-6.45;67.38
55347;BME280;41218;55.700;38.270;2023-02-12T18:39:36;100235.84;;;-6.46;66.94
55347;BME280;41218;55.700;38.270;2023-02-12T18:44:37;100225.50;;;-6.54;66.96
55347;BME280;41218;55.700;38.270;2023-02-12T18:49:37;100221.34;;;-6.62;67.51
55347;BME280;41218;55.700;38.270;2023-02-12T18:54:38;100241.06;;;-6.56;67.61
55347;BME280;41218;55.700;38.270;2023-02-12T18:59:38;100236.41;;;-6.61;67.28
55347;BME280;41218;55.700;38.270;2023-02-12T19:04:39;100247.66;;;-6.64;67.13
55347;BME280;41218;55.700;38.270;2023-02-12T19:09:39;100248.63;;;-6.70;67.82
55347;BME280;41218;55.700;38.270;2023-02-12T19:14:40;100259.28;;;-6.75;67.14
55347;BME280;41218;55.700;38.270;2023-02-12T19:19:40;100246.75;;;-6.87;67.72
55347;BME280;41218;55.700;38.270;2023-02-12T19:24:41;100245.94;;;-6.87;68.18
55347;BME280;41218;55.700;38.270;2023-02-12T19:29:42;100251.44;;;-6.94;67.93
55347;BME280;41218;55.700;38.270;2023-02-12T19:34:43;100245.66;;;-7.02;68.28
55347;BME280;41218;55.700;38.270;2023-02-12T19:39:45;100245.81;;;-7.09;68.22
55347;BME280;41218;55.700;38.270;2023-02-12T19:44:45;100255.66;;;-7.15;68.05
55347;BME280;41218;55.700;38.270;2023-02-12T19:49:46;100247.25;;;-7.18;68.20
55347;BME280;41218;55.700;38.270;2023-02-12T19:54:47;100249.50;;;-7.27;67.54
55347;BME280;41218;55.700;38.270;2023-02-12T19:59:47;100242.66;;;-7.35;68.02
55347;BME280;41218;55.700;38.270;2023-02-12T20:04:48;100245.25;;;-7.40;68.24
55347;BME280;41218;55.700;38.270;2023-02-12T20:09:51;100240.22;;;-7.48;68.06
55347;BME280;41218;55.700;38.270;2023-02-12T20:14:53;100227.53;;;-7.53;68.00
55347;BME280;41218;55.700;38.270;2023-02-12T20:19:54;100219.28;;;-7.63;68.59
55347;BME280;41218;55.700;38.270;2023-02-12T20:24:55;100224.66;;;-7.63;68.07
55347;BME280;41218;55.700;38.270;2023-02-12T20:29:55;100209.88;;;-7.77;68.08
55347;BME280;41218;55.700;38.270;2023-02-12T20:34:56;100208.25;;;-7.78;68.00
55347;BME280;41218;55.700;38.270;2023-02-12T20:39:56;100211.31;;;-7.87;68.70
55347;BME280;41218;55.700;38.270;2023-02-12T20:44:56;100213.06;;;-7.92;68.12
55347;BME280;41218;55.700;38.270;2023-02-12T20:49:57;100203.97;;;-8.03;68.80
55347;BME280;41218;55.700;38.270;2023-02-12T20:54:57;100201.53;;;-8.04;68.11
55347;BME280;41218;55.700;38.270;2023-02-12T20:59:58;100196.41;;;-8.06;68.20
55347;BME280;41218;55.700;38.270;2023-02-12T21:04:58;100188.94;;;-8.16;68.30
55347;BME280;41218;55.700;38.270;2023-02-12T21:09:59;100182.66;;;-8.21;68.74
55347;BME280;41218;55.700;38.270;2023-02-12T21:14:59;100185.47;;;-8.28;68.85
55347;BME280;41218;55.700;38.270;2023-02-12T21:20:00;100198.41;;;-8.25;68.60
55347;BME280;41218;55.700;38.270;2023-02-12T21:25:00;100202.50;;;-8.34;68.28
55347;BME280;41218;55.700;38.270;2023-02-12T21:30:01;100196.44;;;-8.41;68.64
55347;BME280;41218;55.700;38.270;2023-02-12T21:35:01;100188.75;;;-8.50;68.83
55347;BME280;41218;55.700;38.270;2023-02-12T21:40:01;100185.16;;;-8.55;68.25
55347;BME280;41218;55.700;38.270;2023-02-12T21:45:02;100194.38;;;-8.63;68.14
55347;BME280;41218;55.700;38.270;2023-02-12T21:50:04;100192.63;;;-8.69;68.65
55347;BME280;41218;55.700;38.270;2023-02-12T21:55:05;100181.41;;;-8.78;68.51
55347;BME280;41218;55.700;38.270;2023-02-12T22:00:06;100191.91;;;-8.76;68.95
55347;BME280;41218;55.700;38.270;2023-02-12T22:05:07;100180.13;;;-8.87;68.09
55347;BME280;41218;55.700;38.270;2023-02-12T22:10:07;100188.97;;;-8.87;68.85
55347;BME280;41218;55.700;38.270;2023-02-12T22:15:08;100181.06;;;-8.93;68.70
55347;BME280;41218;55.700;38.270;2023-02-12T22:20:09;100174.06;;;-8.94;68.47
55347;BME280;41218;55.700;38.270;2023-02-12T22:25:09;100164.03;;;-8.99;68.63
55347;BME280;41218;55.700;38.270;2023-02-12T22:30:10;100160.31;;;-8.98;68.51
55347;BME280;41218;55.700;38.270;2023-02-12T22:35:10;100149.69;;;-9.04;68.49
55347;BME280;41218;55.700;38.270;2023-02-12T22:40:11;100151.34;;;-9.03;68.98
55347;BME280;41218;55.700;38.270;2023-02-12T22:45:12;100148.53;;;-9.09;68.40
55347;BME280;41218;55.700;38.270;2023-02-12T22:50:12;100149.44;;;-9.15;68.62
55347;BME280;41218;55.700;38.270;2023-02-12T22:55:13;100152.00;;;-9.20;68.78
55347;BME280;41218;55.700;38.270;2023-02-12T23:00:13;100151.06;;;-9.25;68.82
55347;BME280;41218;55.700;38.270;2023-02-12T23:05:14;100147.66;;;-9.33;68.75
55347;BME280;41218;55.700;38.270;2023-02-12T23:10:14;100155.34;;;-9.36;68.48
55347;BME280;41218;55.700;38.270;2023-02-12T23:15:15;100156.59;;;-9.39;68.73
55347;BME280;41218;55.700;38.270;2023-02-12T23:20:15;100140.16;;;-9.54;68.54
55347;BME280;41218;55.700;38.270;2023-02-12T23:25:16;100166.97;;;-9.42;68.92
55347;BME280;41218;55.700;38.270;2023-02-12T23:30:16;100144.38;;;-9.47;68.84
55347;BME280;41218;55.700;38.270;2023-02-12T23:35:17;100140.06;;;-9.48;68.22
55347;BME280;41218;55.700;38.270;2023-02-12T23:40:17;100137.84;;;-9.51;68.44
55347;BME280;41218;55.700;38.270;2023-02-12T23:45:18;100137.84;;;-9.51;68.74
55347;BME280;41218;55.700;38.270;2023-02-12T23:50:18;100124.91;;;-9.54;68.58
55347;BME280;41218;55.700;38.270;2023-02-12T23:55:19;100098.59;;;-9.69;68.84
